Time;durP1;ratioP1;P1;durP2;ratioP2;P2;SDS_P1;SDS_P2;PMS_P1;PMS_P2;Temp;Humidity;BMP_temperature;BMP_pressure;BME280_temperature;BME280_humidity;BME280_pressure;Samples;Min_cycle;Max_cycle;Signal;HPM_P1;HPM_P2
2021/12/12 00:00:03;;;;;;;3.50;2.97;;;6.20;1.00;;;;;;4970516;28;20634;-81
2021/12/12 00:02:48;;;;;;;8.07;4.57;;;6.20;1.00;;;;;;4977801;28;21056;-81
2021/12/12 00:05:20;;;;;;;4.23;3.20;;;6.20;1.00;;;;;;4983166;28;20450;-81
2021/12/12 00:07:49;;;;;;;3.77;2.60;;;6.30;1.00;;;;;;4983615;28;20466;-82
2021/12/12 00:10:20;;;;;;;4.57;2.60;;;6.30;1.00;;;;;;4979702;28;20959;-82
2021/12/12 00:12:52;;;;;;;3.53;2.60;;;6.20;99.90;;;;;;4980279;28;20459;-81
2021/12/12 00:15:21;;;;;;;2.80;2.27;;;6.30;1.00;;;;;;4966210;28;20544;-82
2021/12/12 00:17:50;;;;;;;2.80;2.30;;;6.20;1.00;;;;;;4982455;28;20545;-81
2021/12/12 00:20:22;;;;;;;3.70;2.80;;;6.20;1.00;;;;;;4981214;28;20506;-81
2021/12/12 00:22:52;;;;;;;3.33;2.37;;;6.20;1.00;;;;;;4982535;28;20972;-78
2021/12/12 00:25:21;;;;;;;2.70;2.47;;;6.30;1.00;;;;;;4978712;28;20542;-80
2021/12/12 00:27:50;;;;;;;2.80;2.20;;;6.30;1.00;;;;;;4971581;28;20446;-80
2021/12/12 00:30:18;;;;;;;2.60;2.00;;;6.40;99.90;;;;;;4947994;28;20478;-79
2021/12/12 00:32:46;;;;;;;3.97;2.40;;;6.40;99.90;;;;;;4964946;28;20446;-79
2021/12/12 00:35:16;;;;;;;2.97;1.80;;;6.40;99.90;;;;;;4963519;28;21052;-78
2021/12/12 00:37:45;;;;;;;3.33;2.90;;;6.30;99.90;;;;;;4959838;28;22454;-78
2021/12/12 00:40:23;;;;;;;3.63;2.00;;;6.30;99.90;;;;;;4962558;28;20470;-78
2021/12/12 00:42:53;;;;;;;2.23;2.03;;;6.30;99.90;;;;;;4977224;28;20879;-80
2021/12/12 00:45:23;;;;;;;2.30;2.10;;;6.60;99.90;;;;;;4977513;28;20462;-80
2021/12/12 00:47:52;;;;;;;3.23;2.30;;;6.40;99.90;;;;;;4981713;28;20472;-80
2021/12/12 00:50:28;;;;;;;3.13;2.53;;;6.30;99.90;;;;;;4979595;28;20482;-80
2021/12/12 00:52:58;;;;;;;2.57;2.27;;;6.10;99.90;;;;;;4981590;28;20470;-81
2021/12/12 00:55:27;;;;;;;4.07;2.75;;;6.10;99.90;;;;;;4978494;28;20454;-81
2021/12/12 00:57:55;;;;;;;4.03;3.13;;;6.00;99.90;;;;;;4977314;28;20203;-81
2021/12/12 01:00:26;;;;;;;3.13;2.83;;;5.90;1.00;;;;;;4981290;28;20215;-80
2021/12/12 01:02:55;;;;;;;4.63;3.13;;;5.90;1.00;;;;;;4980711;28;20671;-81
2021/12/12 01:05:26;;;;;;;3.20;2.90;;;5.90;1.00;;;;;;4977400;28;20203;-80
2021/12/12 01:07:58;;;;;;;4.70;3.37;;;6.00;1.00;;;;;;4981376;28;20458;-81
2021/12/12 01:10:30;;;;;;;3.90;2.10;;;6.10;1.00;;;;;;4981557;28;20454;-80
2021/12/12 01:13:00;;;;;;;3.40;3.10;;;6.20;1.00;;;;;;4979486;28;20914;-81
2021/12/12 01:15:34;;;;;;;3.40;2.47;;;6.30;99.90;;;;;;4971394;28;20827;-81
2021/12/12 01:18:06;;;;;;;7.10;3.47;;;6.30;99.90;;;;;;4978449;28;20453;-81
2021/12/12 01:20:39;;;;;;;4.47;1.93;;;6.30;99.90;;;;;;4980800;28;20466;-80
2021/12/12 01:23:11;;;;;;;2.53;2.00;;;6.30;99.90;;;;;;4984193;28;20461;-81
2021/12/12 01:25:44;;;;;;;3.13;2.00;;;6.30;99.90;;;;;;4978741;28;20454;-80
2021/12/12 01:28:16;;;;;;;1.80;1.70;;;6.40;99.90;;;;;;4981128;28;20466;-81
2021/12/12 01:30:45;;;;;;;2.60;2.38;;;6.50;99.90;;;;;;4981612;28;20473;-80
2021/12/12 01:33:21;;;;;;;3.27;1.90;;;6.20;99.90;;;;;;4981371;28;20209;-80
2021/12/12 01:35:51;;;;;;;2.40;2.05;;;6.10;99.90;;;;;;4981628;28;20458;-80
2021/12/12 01:41:05;;;;;;;2.03;1.83;;;6.00;99.90;;;;;;4977656;28;20461;-80
2021/12/12 01:43:40;;;;;;;2.30;2.10;;;6.00;99.90;;;;;;4981927;28;20560;-81
2021/12/12 01:46:15;;;;;;;3.35;3.08;;;6.20;99.90;;;;;;4981512;28;20453;-80
2021/12/12 01:48:46;;;;;;;3.90;2.03;;;6.00;99.90;;;;;;4981295;28;20227;-81
2021/12/12 01:51:17;;;;;;;4.70;2.45;;;6.50;99.90;;;;;;4982094;28;20222;-80
2021/12/12 01:53:48;;;;;;;4.53;2.72;;;6.20;99.90;;;;;;4977757;28;20713;-79
2021/12/12 01:56:20;;;;;;;2.30;1.73;;;6.20;99.90;;;;;;4979719;28;20592;-79
2021/12/12 01:58:51;;;;;;;4.00;2.47;;;6.30;99.90;;;;;;4981402;28;20566;-80
2021/12/12 02:01:23;;;;;;;2.17;1.97;;;6.50;99.90;;;;;;4983049;28;20446;-80
2021/12/12 02:03:56;;;;;;;1.80;1.53;;;6.30;99.90;;;;;;4983150;28;20478;-80
2021/12/12 02:06:26;;;;;;;4.63;2.40;;;6.30;99.90;;;;;;4984419;28;20458;-80
2021/12/12 02:08:57;;;;;;;4.93;2.00;;;6.20;99.90;;;;;;4983382;28;20478;-81
2021/12/12 02:11:30;;;;;;;3.78;2.00;;;6.20;99.90;;;;;;4972250;28;20521;-78
2021/12/12 02:14:08;;;;;;;4.43;1.90;;;6.00;99.90;;;;;;4976553;28;20467;-81
2021/12/12 02:16:38;;;;;;;2.57;1.87;;;5.90;99.90;;;;;;4980218;28;20458;-78
2021/12/12 02:19:08;;;;;;;3.50;1.63;;;5.90;99.90;;;;;;4981261;28;20492;-80
2021/12/12 02:21:55;;;;;;;1.90;1.70;;;6.00;99.90;;;;;;4983130;28;20206;-80
2021/12/12 02:35:48;;;;;;;1.70;1.47;;;6.00;99.90;;;;;;4983349;28;20454;-80
2021/12/12 02:38:20;;;;;;;1.15;1.05;;;6.10;99.90;;;;;;4982787;28;20565;-79
2021/12/12 02:40:53;;;;;;;1.98;1.60;;;6.20;99.90;;;;;;4982169;28;20290;-80
2021/12/12 02:43:26;;;;;;;1.37;1.27;;;6.40;99.90;;;;;;4983618;28;20289;-79
2021/12/12 02:45:56;;;;;;;2.60;1.92;;;6.20;99.90;;;;;;4984948;28;20482;-80
2021/12/12 02:48:27;;;;;;;1.33;1.23;;;6.00;99.90;;;;;;4981103;28;20219;-81
2021/12/12 02:50:59;;;;;;;2.13;1.67;;;6.10;99.90;;;;;;4983221;28;20591;-80
2021/12/12 02:53:31;;;;;;;2.97;2.20;;;6.20;99.90;;;;;;4983496;28;20473;-81
2021/12/12 02:56:05;;;;;;;3.95;1.92;;;6.30;99.90;;;;;;4983617;28;20203;-81
2021/12/12 02:58:34;;;;;;;4.87;1.70;;;6.30;99.90;;;;;;4981933;28;20238;-80
2021/12/12 03:01:09;;;;;;;2.20;1.80;;;6.20;99.90;;;;;;4983053;28;20466;-80
2021/12/12 03:03:41;;;;;;;5.73;1.93;;;6.20;99.90;;;;;;4965636;28;20465;-80
2021/12/12 03:06:11;;;;;;;1.83;1.70;;;6.00;99.90;;;;;;4976356;28;20477;-80
2021/12/12 03:08:44;;;;;;;2.50;1.85;;;5.90;99.90;;;;;;4972448;28;20853;-81
2021/12/12 03:11:15;;;;;;;2.88;1.80;;;5.70;99.90;;;;;;4982447;28;20254;-80
2021/12/12 03:13:45;;;;;;;2.28;1.73;;;5.50;99.90;;;;;;4980823;28;20199;-80
2021/12/12 03:16:14;;;;;;;1.60;1.50;;;5.60;99.90;;;;;;4983169;28;20202;-79
2021/12/12 03:18:46;;;;;;;3.13;1.70;;;5.40;99.90;;;;;;4981657;28;20346;-80
2021/12/12 03:21:18;;;;;;;3.03;1.40;;;5.50;99.90;;;;;;4987590;28;20206;-77
2021/12/12 03:23:49;;;;;;;2.38;1.70;;;5.50;99.90;;;;;;4978476;28;20204;-80
2021/12/12 03:26:20;;;;;;;3.50;2.05;;;5.50;99.90;;;;;;4971679;28;20223;-79
2021/12/12 03:28:52;;;;;;;4.45;1.67;;;5.40;99.90;;;;;;4972508;28;20228;-80
2021/12/12 03:31:23;;;;;;;2.75;1.85;;;5.50;99.90;;;;;;4982993;28;20618;-79
2021/12/12 03:33:52;;;;;;;2.33;2.13;;;5.40;99.90;;;;;;4980146;28;20212;-81
2021/12/12 03:36:22;;;;;;;1.50;1.40;;;5.60;99.90;;;;;;4975581;28;21194;-80
2021/12/12 03:39:04;;;;;;;1.55;1.30;;;5.50;99.90;;;;;;4969177;28;20448;-79
2021/12/12 03:41:36;;;;;;;2.85;1.85;;;5.70;99.90;;;;;;4965591;28;20205;-79
2021/12/12 03:44:08;;;;;;;1.60;1.47;;;5.70;99.90;;;;;;4949070;28;20233;-78
2021/12/12 03:46:37;;;;;;;2.22;1.50;;;6.10;99.90;;;;;;4962965;28;20517;-78
2021/12/12 03:49:07;;;;;;;3.78;2.30;;;5.80;99.90;;;;;;4966885;28;20777;-80
2021/12/12 03:51:36;;;;;;;2.00;1.90;;;5.80;99.90;;;;;;4963359;28;20689;-81
2021/12/12 03:54:06;;;;;;;1.85;1.48;;;6.00;99.90;;;;;;4960903;28;20289;-78
2021/12/12 03:56:36;;;;;;;1.83;1.42;;;5.70;99.90;;;;;;4967074;28;20203;-78
2021/12/12 03:59:05;;;;;;;4.10;1.57;;;5.60;99.90;;;;;;4964364;28;20258;-76
2021/12/12 04:01:37;;;;;;;2.03;1.42;;;5.60;99.90;;;;;;4974722;28;20835;-78
2021/12/12 04:04:08;;;;;;;1.75;1.30;;;5.40;99.90;;;;;;4983293;28;20203;-80
2021/12/12 04:06:36;;;;;;;3.10;2.80;;;5.40;99.90;;;;;;4954741;28;20223;-78
2021/12/12 04:09:07;;;;;;;9.57;2.25;;;5.60;99.90;;;;;;4961567;28;20237;-80
2021/12/12 04:11:39;;;;;;;2.53;1.80;;;5.70;99.90;;;;;;4961446;28;20596;-79
2021/12/12 04:14:09;;;;;;;2.70;1.88;;;6.00;99.90;;;;;;4962631;28;20210;-80
2021/12/12 04:16:41;;;;;;;3.65;2.05;;;5.80;99.90;;;;;;4962209;28;20206;-80
2021/12/12 04:19:10;;;;;;;3.43;1.70;;;5.60;99.90;;;;;;4969856;28;20222;-78
2021/12/12 04:21:40;;;;;;;2.78;1.55;;;5.60;99.90;;;;;;4960796;28;20463;-80
2021/12/12 04:24:09;;;;;;;2.35;2.05;;;5.60;99.90;;;;;;4961723;28;20211;-78
2021/12/12 04:26:40;;;;;;;4.53;1.80;;;5.70;99.90;;;;;;4967808;28;20234;-80
2021/12/12 04:29:11;;;;;;;2.83;1.30;;;5.70;99.90;;;;;;4980008;28;20219;-80
2021/12/12 04:31:42;;;;;;;2.00;1.50;;;5.90;99.90;;;;;;4971877;28;21136;-79
2021/12/12 04:34:11;;;;;;;1.40;1.30;;;5.60;99.90;;;;;;4964576;28;20265;-79
2021/12/12 04:36:44;;;;;;;2.45;1.63;;;5.60;99.90;;;;;;4966136;28;20215;-79
2021/12/12 04:39:15;;;;;;;5.15;1.75;;;5.90;99.90;;;;;;4959017;28;20223;-78
2021/12/12 04:41:48;;;;;;;2.60;1.40;;;5.60;99.90;;;;;;4958729;28;20304;-76
2021/12/12 04:44:21;;;;;;;3.13;1.55;;;5.50;99.90;;;;;;4960291;28;20195;-79
2021/12/12 04:49:58;;;;;;;5.75;1.65;;;5.30;99.90;;;;;;4960388;28;20367;-77
2021/12/12 04:52:34;;;;;;;1.60;1.50;;;5.30;99.90;;;;;;4958158;28;20206;-80
2021/12/12 04:55:07;;;;;;;3.25;1.60;;;5.20;99.90;;;;;;4959698;28;20209;-79
2021/12/12 04:57:43;;;;;;;2.33;1.55;;;5.00;99.90;;;;;;4962312;28;20229;-82
2021/12/12 05:00:18;;;;;;;3.15;1.70;;;5.10;99.90;;;;;;4963125;28;20239;-80
2021/12/12 05:02:55;;;;;;;2.17;2.08;;;5.00;99.90;;;;;;4962609;28;20203;-79
2021/12/12 05:05:26;;;;;;;2.47;1.77;;;5.10;99.90;;;;;;4962264;28;20223;-79
2021/12/12 05:07:59;;;;;;;2.03;1.80;;;5.00;99.90;;;;;;4965655;28;20587;-81
2021/12/12 05:10:34;;;;;;;2.33;1.77;;;5.00;99.90;;;;;;4965699;28;20219;-79
2021/12/12 05:13:12;;;;;;;3.10;1.77;;;4.90;99.90;;;;;;4961554;28;20210;-79
2021/12/12 05:15:44;;;;;;;1.50;1.40;;;4.90;99.90;;;;;;4966045;28;20832;-80
2021/12/12 05:18:19;;;;;;;2.92;1.75;;;4.80;99.90;;;;;;4958764;28;20211;-81
2021/12/12 05:20:53;;;;;;;1.92;1.77;;;5.00;99.90;;;;;;4963970;28;20198;-81
2021/12/12 05:23:25;;;;;;;1.60;1.20;;;5.10;99.90;;;;;;4963730;28;20205;-80
2021/12/12 05:25:57;;;;;;;2.67;1.98;;;5.10;99.90;;;;;;4959396;28;20234;-79
2021/12/12 05:28:31;;;;;;;2.63;1.58;;;4.90;99.90;;;;;;4979234;28;20273;-80
2021/12/12 05:31:01;;;;;;;1.90;1.20;;;5.20;99.90;;;;;;4981033;28;20262;-80
2021/12/12 05:33:31;;;;;;;1.67;1.55;;;4.90;99.90;;;;;;4958504;28;21919;-78
2021/12/12 05:36:00;;;;;;;1.92;1.30;;;4.90;99.90;;;;;;4973288;28;20198;-81
2021/12/12 05:38:30;;;;;;;1.30;1.20;;;4.80;99.90;;;;;;4978805;28;20215;-81
2021/12/12 05:40:59;;;;;;;1.95;1.70;;;4.70;99.90;;;;;;4977853;28;20210;-81
2021/12/12 05:43:29;;;;;;;2.15;1.27;;;4.80;99.90;;;;;;4979160;28;20213;-80
2021/12/12 05:45:58;;;;;;;1.70;1.50;;;4.90;99.90;;;;;;4978364;28;20226;-81
2021/12/12 05:48:26;;;;;;;1.30;1.20;;;4.90;99.90;;;;;;4974703;28;20785;-80
2021/12/12 05:50:55;;;;;;;3.53;1.58;;;5.10;99.90;;;;;;4977111;28;20205;-79
2021/12/12 05:53:23;;;;;;;1.30;1.20;;;5.20;99.90;;;;;;4978783;28;20442;-80
2021/12/12 05:55:52;;;;;;;2.47;1.52;;;5.50;99.90;;;;;;4962448;28;20202;-81
2021/12/12 05:58:22;;;;;;;1.30;1.20;;;5.20;99.90;;;;;;4976827;28;20226;-79
2021/12/12 06:00:56;;;;;;;1.85;1.75;;;5.30;99.90;;;;;;4976736;28;20211;-81
2021/12/12 06:03:27;;;;;;;3.83;2.33;;;5.40;99.90;;;;;;4976734;28;20322;-77
2021/12/12 06:05:56;;;;;;;1.83;1.73;;;5.40;99.90;;;;;;4978289;28;20223;-81
2021/12/12 06:08:27;;;;;;;3.53;1.70;;;5.60;99.90;;;;;;4976374;28;20223;-78
2021/12/12 06:10:56;;;;;;;5.25;2.17;;;5.40;99.90;;;;;;4976644;28;20208;-80
2021/12/12 06:13:26;;;;;;;2.13;1.50;;;5.40;99.90;;;;;;4974770;28;20196;-78
2021/12/12 06:15:56;;;;;;;2.70;1.70;;;5.40;99.90;;;;;;4976223;28;20288;-80
2021/12/12 06:18:27;;;;;;;3.00;2.05;;;5.30;99.90;;;;;;4975730;28;20226;-78
2021/12/12 06:20:56;;;;;;;1.92;1.77;;;5.00;99.90;;;;;;4976883;28;20791;-78
2021/12/12 06:23:27;;;;;;;3.83;2.40;;;5.00;99.90;;;;;;4976852;28;20586;-80
2021/12/12 06:25:56;;;;;;;2.22;1.55;;;5.10;99.90;;;;;;4975798;28;20515;-80
2021/12/12 06:28:28;;;;;;;1.80;1.60;;;4.80;99.90;;;;;;4983309;28;20227;-80
2021/12/12 06:30:59;;;;;;;3.03;1.90;;;4.80;99.90;;;;;;4985570;28;20633;-81
2021/12/12 06:33:28;;;;;;;2.95;1.95;;;4.70;99.90;;;;;;4982180;28;20222;-80
2021/12/12 06:35:57;;;;;;;1.55;1.45;;;4.50;99.90;;;;;;4983474;28;20204;-80
2021/12/12 06:38:26;;;;;;;2.35;1.52;;;4.50;99.90;;;;;;4982701;28;20292;-81
2021/12/12 06:40:54;;;;;;;1.75;1.63;;;4.70;99.90;;;;;;4983501;28;20226;-80
2021/12/12 06:43:23;;;;;;;3.72;1.55;;;4.60;99.90;;;;;;4978912;28;20229;-81
2021/12/12 06:45:52;;;;;;;2.05;1.50;;;4.60;99.90;;;;;;4978067;28;20199;-82
2021/12/12 06:48:22;;;;;;;2.88;2.25;;;4.50;99.90;;;;;;4977362;28;20310;-81
2021/12/12 06:50:53;;;;;;;1.92;1.73;;;4.50;99.90;;;;;;4983512;28;20205;-81
2021/12/12 06:53:24;;;;;;;2.88;1.98;;;4.50;99.90;;;;;;4981301;28;20605;-80
2021/12/12 06:55:54;;;;;;;2.40;2.20;;;4.70;99.90;;;;;;4983211;28;20209;-82
2021/12/12 06:58:25;;;;;;;3.20;1.60;;;4.80;99.90;;;;;;4980716;28;20314;-80
2021/12/12 07:00:57;;;;;;;2.35;1.80;;;4.90;99.90;;;;;;4981810;28;20901;-81
2021/12/12 07:03:28;;;;;;;1.80;1.58;;;5.00;99.90;;;;;;4983313;28;20202;-81
2021/12/12 07:05:56;;;;;;;4.25;1.77;;;5.00;99.90;;;;;;4982320;28;20300;-81
2021/12/12 07:08:25;;;;;;;2.05;1.50;;;5.00;99.90;;;;;;4981582;28;20227;-81
2021/12/12 07:10:54;;;;;;;3.05;2.35;;;5.00;99.90;;;;;;4975592;28;20216;-81
2021/12/12 07:13:23;;;;;;;1.90;1.55;;;5.00;99.90;;;;;;4982611;28;20284;-79
2021/12/12 07:15:59;;;;;;;2.25;1.63;;;5.00;99.90;;;;;;4980599;28;20210;-80
2021/12/12 07:18:33;;;;;;;1.95;1.35;;;5.00;99.90;;;;;;4980530;28;20786;-79
2021/12/12 07:21:06;;;;;;;2.38;1.75;;;5.10;99.90;;;;;;4981991;28;20717;-79
2021/12/12 07:23:35;;;;;;;3.20;2.15;;;4.80;99.90;;;;;;4980070;28;20574;-80
2021/12/12 07:26:06;;;;;;;3.53;1.40;;;4.70;99.90;;;;;;4980687;28;20210;-78
2021/12/12 07:28:36;;;;;;;3.20;1.33;;;4.50;99.90;;;;;;4979061;28;20228;-77
2021/12/12 07:31:07;;;;;;;2.05;1.20;;;4.70;99.90;;;;;;4975743;28;20329;-79
2021/12/12 07:33:38;;;;;;;2.58;1.58;;;4.70;99.90;;;;;;4973089;28;20252;-79
2021/12/12 07:36:08;;;;;;;2.53;1.30;;;5.10;99.90;;;;;;4959002;28;20200;-80
2021/12/12 07:38:38;;;;;;;1.60;1.50;;;4.60;99.90;;;;;;4972312;28;20233;-80
2021/12/12 07:41:07;;;;;;;1.88;1.77;;;4.60;99.90;;;;;;4978292;28;21024;-80
2021/12/12 07:43:36;;;;;;;1.45;1.30;;;4.80;99.90;;;;;;4983328;28;20671;-79
2021/12/12 07:46:05;;;;;;;1.20;1.10;;;4.80;99.90;;;;;;4979874;28;20256;-80
2021/12/12 07:48:35;;;;;;;1.20;1.10;;;4.50;99.90;;;;;;4972608;28;20711;-79
2021/12/12 07:51:05;;;;;;;1.75;1.10;;;4.50;99.90;;;;;;4974190;28;20290;-77
2021/12/12 07:53:34;;;;;;;1.65;1.55;;;4.70;99.90;;;;;;4973193;28;21122;-79
2021/12/12 07:56:03;;;;;;;1.45;1.35;;;4.90;99.90;;;;;;4971973;28;20209;-78
2021/12/12 07:58:31;;;;;;;1.60;1.40;;;4.80;99.90;;;;;;4971750;28;20222;-78
2021/12/12 08:01:01;;;;;;;1.40;1.20;;;4.60;99.90;;;;;;4976213;28;20217;-79
2021/12/12 08:03:33;;;;;;;1.50;1.23;;;4.20;99.90;;;;;;4981847;28;20230;-79
2021/12/12 08:06:02;;;;;;;1.30;1.20;;;4.30;99.90;;;;;;4980592;28;20648;-79
2021/12/12 08:08:33;;;;;;;1.90;1.80;;;4.20;99.90;;;;;;4974512;28;20254;-76
2021/12/12 08:11:05;;;;;;;1.40;1.30;;;4.10;99.90;;;;;;4974566;28;20219;-78
2021/12/12 08:13:34;;;;;;;1.50;1.10;;;3.90;99.90;;;;;;4973996;28;20337;-79
2021/12/12 08:16:07;;;;;;;1.25;0.90;;;4.10;99.90;;;;;;4973118;28;20209;-80
2021/12/12 08:18:38;;;;;;;2.22;2.00;;;4.00;99.90;;;;;;4973986;28;20340;-80
2021/12/12 08:21:07;;;;;;;3.08;2.00;;;4.00;99.90;;;;;;4975436;28;20207;-80
2021/12/12 08:23:39;;;;;;;2.30;1.30;;;4.20;99.90;;;;;;4974160;28;20540;-79
2021/12/12 08:26:09;;;;;;;1.50;1.25;;;4.20;99.90;;;;;;4976231;28;20331;-80
2021/12/12 08:28:39;;;;;;;1.30;1.20;;;4.20;99.90;;;;;;4979041;28;20230;-80
2021/12/12 08:31:08;;;;;;;0.82;0.82;;;4.50;99.90;;;;;;4973364;28;20209;-80
2021/12/12 08:33:36;;;;;;;1.20;0.98;;;4.30;99.90;;;;;;4977921;28;20202;-79
2021/12/12 08:36:05;;;;;;;0.98;0.90;;;4.00;99.90;;;;;;4987666;28;20672;-78
2021/12/12 08:38:33;;;;;;;0.90;0.90;;;4.00;99.90;;;;;;4979643;28;20719;-80
2021/12/12 08:41:06;;;;;;;4.10;2.05;;;4.00;99.90;;;;;;4967022;28;20661;-80
2021/12/12 08:43:35;;;;;;;3.35;1.40;;;4.10;99.90;;;;;;4973213;28;20720;-80
2021/12/12 08:46:07;;;;;;;1.50;1.20;;;4.10;99.90;;;;;;4979726;28;20749;-80
2021/12/12 08:48:38;;;;;;;0.93;0.93;;;4.10;99.90;;;;;;4979714;28;20234;-79
2021/12/12 08:51:11;;;;;;;1.20;1.00;;;4.20;99.90;;;;;;4977636;28;20795;-81
2021/12/12 08:53:41;;;;;;;1.50;1.40;;;4.40;99.90;;;;;;4965340;28;20213;-81
2021/12/12 08:56:18;;;;;;;1.90;1.40;;;4.30;99.90;;;;;;4969665;28;20268;-81
2021/12/12 08:58:48;;;;;;;0.80;0.80;;;4.30;99.90;;;;;;4982700;28;20220;-81
2021/12/12 09:01:18;;;;;;;1.27;1.17;;;4.30;99.90;;;;;;4995271;28;20843;-81
2021/12/12 09:03:55;;;;;;;1.40;1.30;;;4.50;99.90;;;;;;4977910;28;20248;-81
2021/12/12 09:06:28;;;;;;;2.17;1.25;;;4.30;99.90;;;;;;4977272;28;20213;-80
2021/12/12 09:09:01;;;;;;;2.53;1.35;;;4.20;99.90;;;;;;4969204;28;20233;-79
2021/12/12 09:11:34;;;;;;;2.33;1.50;;;4.20;99.90;;;;;;4984738;28;20203;-80
2021/12/12 09:14:07;;;;;;;2.85;1.40;;;4.10;99.90;;;;;;4984989;28;20256;-81
2021/12/12 09:16:41;;;;;;;1.38;1.27;;;4.10;99.90;;;;;;4985055;28;20209;-81
2021/12/12 09:19:13;;;;;;;1.80;1.00;;;4.20;99.90;;;;;;4984426;28;20228;-81
2021/12/12 09:21:49;;;;;;;1.40;1.30;;;4.40;99.90;;;;;;4984685;28;20671;-81
2021/12/12 09:24:27;;;;;;;1.70;1.48;;;4.80;99.90;;;;;;4984395;28;20669;-83
2021/12/12 09:27:01;;;;;;;1.48;1.00;;;4.80;99.90;;;;;;4984128;28;20228;-82
2021/12/12 09:29:33;;;;;;;1.70;1.60;;;4.90;99.90;;;;;;4990278;28;20231;-80
2021/12/12 09:32:06;;;;;;;1.52;0.90;;;5.10;99.90;;;;;;4982516;28;20204;-79
2021/12/12 09:34:39;;;;;;;1.10;1.00;;;4.80;99.90;;;;;;4975473;28;20208;-79
2021/12/12 09:37:20;;;;;;;1.00;0.90;;;4.80;99.90;;;;;;4978980;28;20198;-80
2021/12/12 09:39:58;;;;;;;1.73;1.35;;;4.80;99.90;;;;;;4976441;28;20316;-79
2021/12/12 09:42:53;;;;;;;2.35;1.33;;;5.20;99.90;;;;;;4983917;28;20196;-79
2021/12/12 09:45:49;;;;;;;1.40;1.10;;;4.90;99.90;;;;;;4984860;28;20205;-81
2021/12/12 09:51:48;;;;;;;2.13;1.20;;;5.00;99.90;;;;;;4937827;28;20275;-81
2021/12/12 09:54:26;;;;;;;1.35;0.90;;;5.20;99.90;;;;;;4977741;28;20210;-79
2021/12/12 09:57:01;;;;;;;1.23;0.82;;;5.10;99.90;;;;;;4978065;28;20202;-80
2021/12/12 09:59:48;;;;;;;2.10;1.38;;;5.20;99.90;;;;;;4984415;28;20243;-81
2021/12/12 10:02:27;;;;;;;1.33;1.00;;;5.20;99.90;;;;;;4985320;28;20205;-80
2021/12/12 10:05:12;;;;;;;1.20;1.10;;;5.40;99.90;;;;;;4968778;28;20525;-80
2021/12/12 10:07:51;;;;;;;1.40;1.25;;;5.70;99.90;;;;;;4989734;28;20852;-79
2021/12/12 10:10:26;;;;;;;1.65;1.08;;;5.70;99.90;;;;;;4973595;28;20249;-80
2021/12/12 10:13:01;;;;;;;0.80;0.80;;;5.60;99.90;;;;;;4985624;28;20519;-81
2021/12/12 10:15:39;;;;;;;1.70;0.80;;;5.70;99.90;;;;;;4986658;28;20203;-80
2021/12/12 10:18:16;;;;;;;0.90;0.90;;;5.60;99.90;;;;;;4978239;28;20202;-81
2021/12/12 10:20:57;;;;;;;1.73;1.00;;;6.10;99.90;;;;;;4980636;28;20554;-80
2021/12/12 10:23:43;;;;;;;1.20;1.10;;;5.90;99.90;;;;;;4980128;28;20203;-80
2021/12/12 10:26:17;;;;;;;1.75;1.08;;;5.60;99.90;;;;;;4979554;28;20195;-81
2021/12/12 10:28:52;;;;;;;1.00;1.00;;;5.80;99.90;;;;;;4974956;28;20237;-80
2021/12/12 10:31:25;;;;;;;0.93;0.93;;;5.50;99.90;;;;;;4980828;28;20484;-80
2021/12/12 10:33:59;;;;;;;1.50;0.80;;;5.10;99.90;;;;;;4978501;28;20452;-80
2021/12/12 10:36:33;;;;;;;1.02;0.90;;;5.00;99.90;;;;;;4977470;28;20689;-81
2021/12/12 10:39:07;;;;;;;1.67;0.90;;;5.20;99.90;;;;;;4975486;28;20219;-78
2021/12/12 10:41:39;;;;;;;1.00;0.90;;;5.40;99.90;;;;;;4973672;28;20202;-80
2021/12/12 10:44:12;;;;;;;1.05;0.90;;;5.50;99.90;;;;;;4975812;28;20505;-80
2021/12/12 10:46:51;;;;;;;1.15;0.88;;;5.90;99.90;;;;;;4975827;28;20211;-80
2021/12/12 10:49:27;;;;;;;1.00;0.90;;;5.80;99.90;;;;;;4977011;28;20231;-80
2021/12/12 10:52:06;;;;;;;1.17;1.00;;;5.90;99.90;;;;;;4974957;28;20213;-79
2021/12/12 10:54:40;;;;;;;1.35;1.00;;;6.00;99.90;;;;;;4976656;28;20647;-79
2021/12/12 10:57:14;;;;;;;0.90;0.88;;;5.90;99.90;;;;;;4974907;28;20203;-81
2021/12/12 10:59:49;;;;;;;0.95;0.80;;;5.90;99.90;;;;;;4975876;28;20230;-78
2021/12/12 11:02:25;;;;;;;1.25;1.10;;;5.80;99.90;;;;;;4976641;28;20209;-80
2021/12/12 11:05:01;;;;;;;1.42;1.02;;;5.70;99.90;;;;;;4978935;28;20613;-80
2021/12/12 11:07:34;;;;;;;0.93;0.90;;;5.90;99.90;;;;;;4977842;28;20207;-80
2021/12/12 11:10:08;;;;;;;1.10;1.00;;;6.10;99.90;;;;;;4978580;28;20230;-79
2021/12/12 11:12:42;;;;;;;1.40;1.00;;;6.00;99.90;;;;;;4978813;28;20485;-80
2021/12/12 11:15:14;;;;;;;0.70;0.70;;;6.30;99.90;;;;;;4978698;28;20760;-80
2021/12/12 11:17:50;;;;;;;1.65;1.02;;;6.20;99.90;;;;;;4977705;28;20469;-79
2021/12/12 11:20:22;;;;;;;1.83;0.90;;;6.30;99.90;;;;;;4975983;28;20211;-81
2021/12/12 11:22:58;;;;;;;1.30;0.90;;;6.20;99.90;;;;;;4977954;28;20472;-78
2021/12/12 11:25:33;;;;;;;0.90;0.80;;;6.30;99.90;;;;;;4976531;28;21002;-80
2021/12/12 11:28:06;;;;;;;1.00;1.00;;;6.50;99.90;;;;;;4975975;28;20560;-80
2021/12/12 11:30:39;;;;;;;1.07;0.90;;;6.20;99.90;;;;;;4981428;28;20875;-80
2021/12/12 11:33:12;;;;;;;0.97;0.80;;;6.30;99.90;;;;;;4978471;28;20461;-80
2021/12/12 11:35:42;;;;;;;1.42;1.20;;;6.40;99.90;;;;;;4978965;28;20461;-81
2021/12/12 11:38:18;;;;;;;1.17;0.93;;;6.30;99.90;;;;;;4975649;28;20207;-78
2021/12/12 11:40:49;;;;;;;2.17;1.00;;;6.20;99.90;;;;;;4975495;28;20477;-79
2021/12/12 11:43:24;;;;;;;1.47;1.07;;;6.20;99.90;;;;;;4976220;28;20213;-81
2021/12/12 11:45:57;;;;;;;1.20;1.10;;;6.00;99.90;;;;;;4974501;28;20996;-79
2021/12/12 11:48:36;;;;;;;1.17;1.10;;;6.00;99.90;;;;;;4974756;28;20794;-80
2021/12/12 11:51:11;;;;;;;1.73;0.87;;;6.20;99.90;;;;;;4975869;28;21000;-80
2021/12/12 11:53:42;;;;;;;1.53;1.00;;;6.20;99.90;;;;;;4975232;28;20457;-81
2021/12/12 11:56:15;;;;;;;1.83;1.00;;;6.20;99.90;;;;;;4978495;28;20477;-80
2021/12/12 11:58:57;;;;;;;1.40;1.27;;;6.30;99.90;;;;;;4975188;28;20478;-81
2021/12/12 12:01:31;;;;;;;2.00;0.97;;;6.40;99.90;;;;;;4972609;28;20458;-81
2021/12/12 12:04:24;;;;;;;0.77;0.77;;;6.50;99.90;;;;;;4974224;28;20675;-80
2021/12/12 12:07:06;;;;;;;0.87;0.87;;;6.10;99.90;;;;;;4976476;28;20472;-80
2021/12/12 12:09:54;;;;;;;1.90;1.00;;;6.10;99.90;;;;;;4978685;28;20555;-80
2021/12/12 12:12:42;;;;;;;1.35;0.90;;;6.20;99.90;;;;;;4976592;28;20454;-81
2021/12/12 12:15:19;;;;;;;1.10;1.00;;;6.10;99.90;;;;;;4972969;28;20463;-80
2021/12/12 12:17:58;;;;;;;1.17;0.93;;;6.00;99.90;;;;;;4976459;28;20953;-79
2021/12/12 12:20:36;;;;;;;1.40;0.97;;;5.90;99.90;;;;;;4978692;28;20198;-80
2021/12/12 12:23:17;;;;;;;1.50;1.40;;;5.90;99.90;;;;;;4983971;28;20454;-80
2021/12/12 12:28:45;;;;;;;1.57;1.47;;;6.30;99.90;;;;;;4975665;28;20282;-80
2021/12/12 12:31:47;;;;;;;1.88;1.50;;;6.60;99.90;;;;;;4970292;28;20463;-80
2021/12/12 12:35:18;;;;;;;1.70;1.10;;;6.40;99.90;;;;;;4981652;28;20513;-79
2021/12/12 12:38:31;;;;;;;1.50;0.77;;;6.40;99.90;;;;;;4982194;28;20320;-80
2021/12/12 12:41:41;;;;;;;1.40;1.30;;;6.30;99.90;;;;;;4982593;28;20195;-81
2021/12/12 12:44:46;;;;;;;1.13;1.00;;;6.40;99.90;;;;;;4932154;28;20835;-80
2021/12/12 12:47:53;;;;;;;1.47;1.27;;;6.50;99.90;;;;;;4977637;28;20478;-81
2021/12/12 12:50:42;;;;;;;2.40;1.10;;;6.60;99.90;;;;;;4954869;28;20494;-81
2021/12/12 12:53:23;;;;;;;1.73;1.63;;;6.80;99.90;;;;;;4976797;28;20487;-81
2021/12/12 12:56:14;;;;;;;1.00;1.00;;;6.70;99.90;;;;;;4980827;28;20234;-81
2021/12/12 12:59:07;;;;;;;3.03;1.00;;;6.80;99.90;;;;;;4972941;28;20478;-82
2021/12/12 13:01:42;;;;;;;0.80;0.80;;;6.60;99.90;;;;;;4973795;28;20499;-80
2021/12/12 13:04:21;;;;;;;1.57;0.90;;;6.60;99.90;;;;;;4978562;28;20988;-79
2021/12/12 13:07:22;;;;;;;1.00;1.00;;;6.50;99.90;;;;;;4976643;28;20873;-80
2021/12/12 13:09:59;;;;;;;1.20;1.10;;;6.50;99.90;;;;;;4944584;28;20500;-80
2021/12/12 13:12:48;;;;;;;1.93;1.17;;;6.50;99.90;;;;;;4975996;28;20486;-80
2021/12/12 13:15:44;;;;;;;1.43;1.00;;;6.40;99.90;;;;;;4978535;28;20465;-80
2021/12/12 13:18:23;;;;;;;1.10;1.00;;;6.30;99.90;;;;;;4975942;28;20820;-80
2021/12/12 13:21:08;;;;;;;2.30;1.50;;;6.00;99.90;;;;;;4978986;28;20465;-79
2021/12/12 13:23:55;;;;;;;1.60;1.50;;;6.10;99.90;;;;;;4977273;28;20990;-79
2021/12/12 13:26:34;;;;;;;1.77;1.53;;;6.20;99.90;;;;;;4976851;28;20570;-80
2021/12/12 13:29:15;;;;;;;1.77;1.20;;;6.30;99.90;;;;;;4973788;28;20569;-80
2021/12/12 13:31:52;;;;;;;1.30;1.10;;;6.10;99.90;;;;;;4977761;28;20485;-78
2021/12/12 13:34:31;;;;;;;2.05;1.42;;;6.20;99.90;;;;;;4974331;28;20579;-81
2021/12/12 13:37:11;;;;;;;2.10;1.37;;;6.20;99.90;;;;;;4974026;28;20211;-81
2021/12/12 13:39:53;;;;;;;1.20;1.10;;;6.40;99.90;;;;;;4983805;28;20489;-79
2021/12/12 13:42:30;;;;;;;1.77;1.23;;;6.40;99.90;;;;;;4974524;28;20468;-83
2021/12/12 13:45:17;;;;;;;1.43;1.07;;;6.30;99.90;;;;;;4982055;28;20457;-81
2021/12/12 13:47:57;;;;;;;1.53;1.03;;;6.50;99.90;;;;;;4969449;28;20910;-81
2021/12/12 13:50:33;;;;;;;1.50;1.40;;;6.70;99.90;;;;;;4977323;28;20477;-81
2021/12/12 13:53:12;;;;;;;1.17;1.07;;;6.70;99.90;;;;;;4972011;28;20461;-80
2021/12/12 13:55:48;;;;;;;0.90;0.90;;;6.50;99.90;;;;;;4984281;28;20481;-80